フランクフルト の空港の天気 - METARとTAF

フランクフルト国際空港 ( EDDF / FRA ) - ドイツ フランクフルト・アム・マイン
飛行場実況気象(Metar)
観測時間10/20 06:20 CEST (10/20 04:20 UTC)
風向・風速不定 1m/s
視程10km以上
天気現象
少しの雲 雲底高度 90m
全天の4割程度の雲 雲底高度 180m
全天の8割程度の雲 雲底高度 1220m
気温13℃
湿度100%
気圧1008hPa
METAREDDF 200420Z VRB01KT 9999 RA FEW003 SCT006 BKN040 13/13 Q1008 TEMPO NSW BKN006
過去の天気等 Google飛行場航空写真 Wunderground天気予報

過去48時間のMETAR

飛行場予報(TAF)
発表時間: 10/20 01:00 CEST (10/19 23:00 UTC)
予報対象時間: 20日2時 CEST ~ 21日8時 CEST
風向・風速不定 2m/s
視程10km以上
全天の8割程度の雲 雲底高度 610m
20日2時 CEST ~ 20日8時 CEST に一時的に
視程4500m
天気現象
全天の8割程度の雲 雲底高度 430m
20日2時 CEST ~ 20日8時 CEST に 確率 30% で一時的に
全天の8割程度の雲 雲底高度 240m
20日8時 CEST ~ 20日11時 CEST に徐々に
風向・風速東北東 3m/s
全天の4割程度の雲 雲底高度 610m
20日23時 CEST ~ 21日2時 CEST に徐々に
風向・風速不定 2m/s
TAF EDDF 192300Z 2000/2106 VRB03KT 9999 BKN020
TEMPO 2000/2006 4500 RA BKN014
PROB30 TEMPO 2000/2006 BKN008
BECMG 2006/2009 07005KT SCT020
BECMG 2021/2024 VRB03KT